Time;durP1;ratioP1;P1;durP2;ratioP2;P2;SDS_P1;SDS_P2;PMS_P1;PMS_P2;Temp;Humidity;BMP_temperature;BMP_pressure;BME280_temperature;BME280_humidity;BME280_pressure;Samples;Min_cycle;Max_cycle;Signal;HPM_P1;HPM_P2
2021/04/08 12:58:40;;;;;;;6.88;3.03;;;;;;;;;;5130194;27;20830;-77
2021/04/08 13:01:05;;;;;;;7.10;3.35;;;;;;;;;;5128478;28;20051;-77
2021/04/08 13:03:31;;;;;;;6.30;2.95;;;;;;;;;;5130100;28;20043;-77
2021/04/08 13:05:57;;;;;;;6.05;3.00;;;;;;;;;;5129666;28;20030;-77
2021/04/08 13:08:24;;;;;;;5.75;3.05;;;;;;;;;;5129817;28;20051;-77
2021/04/08 13:10:51;;;;;;;9.65;3.30;;;;;;;;;;5123642;28;20027;-77
2021/04/08 13:13:17;;;;;;;6.53;3.47;;;;;;;;;;5123534;28;20027;-77
2021/04/08 13:15:43;;;;;;;6.18;3.35;;;;;;;;;;5125399;28;20070;-77
2021/04/08 13:18:09;;;;;;;3.65;2.50;;;;;;;;;;5129537;27;20051;-77
2021/04/08 13:20:35;;;;;;;4.57;2.97;;;;;;;;;;5127330;27;20051;-78
2021/04/08 13:23:02;;;;;;;6.95;3.00;;;;;;;;;;5129000;28;21115;-77
2021/04/08 13:25:29;;;;;;;8.07;3.65;;;;;;;;;;5125087;28;20028;-77
2021/04/08 13:27:55;;;;;;;8.25;3.22;;;;;;;;;;5128450;28;20495;-77
2021/04/08 13:30:23;;;;;;;8.02;3.22;;;;;;;;;;5130018;27;20026;-77
2021/04/08 13:32:49;;;;;;;12.32;2.90;;;;;;;;;;5129283;27;20023;-76
2021/04/08 13:35:15;;;;;;;8.50;3.30;;;;;;;;;;5128175;27;20403;-77
2021/04/08 13:37:41;;;;;;;9.30;2.60;;;;;;;;;;5129397;27;20118;-77
2021/04/08 13:40:08;;;;;;;10.00;3.13;;;;;;;;;;5124238;28;20034;-77
2021/04/08 13:42:34;;;;;;;6.68;2.80;;;;;;;;;;5128473;28;20039;-77
2021/04/08 13:45:00;;;;;;;6.28;3.15;;;;;;;;;;5123144;28;20035;-76
2021/04/08 13:47:27;;;;;;;6.45;3.00;;;;;;;;;;5128976;27;20023;-76
2021/04/08 13:49:53;;;;;;;9.43;3.20;;;;;;;;;;5128087;27;20488;-77
2021/04/08 13:52:19;;;;;;;5.75;3.25;;;;;;;;;;5127720;28;20060;-77
2021/04/08 13:54:45;;;;;;;6.63;3.00;;;;;;;;;;5128705;27;20024;-77
2021/04/08 13:57:11;;;;;;;6.05;3.00;;;;;;;;;;5128362;27;20110;-76
2021/04/08 13:59:37;;;;;;;6.78;3.58;;;;;;;;;;5123698;28;20043;-77
2021/04/08 14:02:03;;;;;;;6.47;2.92;;;;;;;;;;5128233;27;20019;-77
2021/04/08 14:04:29;;;;;;;4.50;2.70;;;;;;;;;;5128256;28;20019;-77
2021/04/08 14:06:55;;;;;;;6.75;2.90;;;;;;;;;;5128478;28;20046;-77
2021/04/08 14:09:21;;;;;;;7.57;2.92;;;;;;;;;;5118275;27;20392;-77
2021/04/08 14:11:47;;;;;;;8.05;3.17;;;;;;;;;;5113359;28;20441;-79
2021/04/08 14:14:13;;;;;;;5.38;2.95;;;;;;;;;;5097179;28;20065;-80
2021/04/08 14:16:40;;;;;;;6.50;2.88;;;;;;;;;;5118525;28;20035;-77
2021/04/08 14:19:06;;;;;;;7.20;3.13;;;;;;;;;;5113215;28;20031;-76
2021/04/08 14:21:33;;;;;;;11.00;3.10;;;;;;;;;;5113252;28;20084;-76
2021/04/08 14:23:59;;;;;;;6.90;2.83;;;;;;;;;;5114306;28;20583;-78
2021/04/08 14:26:25;;;;;;;6.88;2.72;;;;;;;;;;5113233;28;20031;-77
2021/04/08 14:28:51;;;;;;;4.63;2.50;;;;;;;;;;5113954;28;20090;-77
2021/04/08 14:31:17;;;;;;;6.43;3.47;;;;;;;;;;5112612;28;20434;-76
2021/04/08 14:33:43;;;;;;;7.22;2.83;;;;;;;;;;5114686;28;20077;-77
2021/04/08 14:36:09;;;;;;;6.07;3.00;;;;;;;;;;5114605;27;20065;-78
2021/04/08 14:38:35;;;;;;;9.52;3.08;;;;;;;;;;5113964;28;20078;-76
2021/04/08 14:41:01;;;;;;;5.47;3.00;;;;;;;;;;5112261;28;20082;-76
2021/04/08 14:43:27;;;;;;;5.65;2.78;;;;;;;;;;5113947;28;20024;-74
2021/04/08 14:45:54;;;;;;;6.70;2.72;;;;;;;;;;5112940;28;20024;-74
2021/04/08 14:48:20;;;;;;;10.32;3.05;;;;;;;;;;5114144;28;20028;-76
2021/04/08 14:50:46;;;;;;;6.00;2.67;;;;;;;;;;5112732;28;20506;-75
2021/04/08 14:53:12;;;;;;;5.45;2.67;;;;;;;;;;5108929;28;20412;-74
2021/04/08 14:55:38;;;;;;;7.20;3.08;;;;;;;;;;5109730;28;20369;-74
2021/04/08 14:58:04;;;;;;;6.05;2.90;;;;;;;;;;5113508;28;20035;-75
2021/04/08 15:00:30;;;;;;;7.28;2.67;;;;;;;;;;5111953;28;20027;-75
2021/04/08 15:02:57;;;;;;;8.35;3.00;;;;;;;;;;5114452;28;20388;-76
2021/04/08 15:05:23;;;;;;;6.35;2.70;;;;;;;;;;5113951;28;20031;-76
2021/04/08 15:07:49;;;;;;;6.82;2.95;;;;;;;;;;5113476;28;20496;-75
2021/04/08 15:10:17;;;;;;;5.93;2.65;;;;;;;;;;5112947;28;20028;-74
2021/04/08 15:12:43;;;;;;;8.52;3.00;;;;;;;;;;5112993;28;20077;-75
2021/04/08 15:15:11;;;;;;;5.10;2.53;;;;;;;;;;5114321;28;20028;-76
2021/04/08 15:17:37;;;;;;;5.88;2.65;;;;;;;;;;5114623;27;20487;-76
2021/04/08 15:20:04;;;;;;;5.63;2.40;;;;;;;;;;5111442;28;20221;-77
2021/04/08 15:22:30;;;;;;;5.50;2.70;;;;;;;;;;5111065;28;20085;-77
2021/04/08 15:24:56;;;;;;;7.00;2.75;;;;;;;;;;5110117;28;20023;-75
2021/04/08 15:27:22;;;;;;;5.13;2.63;;;;;;;;;;5112954;28;20027;-76
2021/04/08 15:29:48;;;;;;;6.63;3.03;;;;;;;;;;5090865;28;20474;-76
2021/04/08 15:32:15;;;;;;;5.53;2.78;;;;;;;;;;5090435;28;20032;-76
2021/04/08 15:34:41;;;;;;;6.07;2.65;;;;;;;;;;5111546;28;20028;-76
2021/04/08 15:37:07;;;;;;;5.60;2.45;;;;;;;;;;5112405;28;20024;-76
2021/04/08 15:39:34;;;;;;;4.95;2.25;;;;;;;;;;5112952;28;20102;-76
2021/04/08 15:42:00;;;;;;;8.27;3.67;;;;;;;;;;5115193;28;20119;-77
2021/04/08 15:44:26;;;;;;;6.00;2.13;;;;;;;;;;5118257;28;20070;-77
2021/04/08 15:46:52;;;;;;;6.30;3.20;;;;;;;;;;5113699;28;20031;-76
2021/04/08 15:49:18;;;;;;;6.00;2.53;;;;;;;;;;5112644;28;20024;-77
2021/04/08 15:51:44;;;;;;;5.68;2.60;;;;;;;;;;5112921;28;20032;-77
2021/04/08 15:54:10;;;;;;;6.60;2.65;;;;;;;;;;5113866;28;20024;-77
2021/04/08 15:56:36;;;;;;;4.25;2.63;;;;;;;;;;5112860;28;20400;-77
2021/04/08 15:59:02;;;;;;;6.90;2.53;;;;;;;;;;5110607;28;20026;-77
2021/04/08 16:01:29;;;;;;;3.85;2.40;;;;;;;;;;5112197;28;20020;-77
2021/04/08 16:03:55;;;;;;;7.30;2.20;;;;;;;;;;5111612;28;20392;-77
2021/04/08 16:06:22;;;;;;;4.47;2.53;;;;;;;;;;5112531;28;20023;-77
2021/04/08 16:08:49;;;;;;;4.65;2.42;;;;;;;;;;5112782;28;20069;-76
2021/04/08 16:11:15;;;;;;;3.97;2.10;;;;;;;;;;5113281;27;20031;-77
2021/04/08 16:13:41;;;;;;;3.88;2.47;;;;;;;;;;5113297;28;20503;-77
2021/04/08 16:16:07;;;;;;;4.97;2.67;;;;;;;;;;5112469;28;20027;-77
2021/04/08 16:18:33;;;;;;;7.18;2.75;;;;;;;;;;5112040;28;20056;-77
2021/04/08 16:20:59;;;;;;;6.25;2.53;;;;;;;;;;5112457;28;20154;-77
2021/04/08 16:23:25;;;;;;;8.68;2.45;;;;;;;;;;5111509;28;20498;-77
2021/04/08 16:25:51;;;;;;;4.65;2.30;;;;;;;;;;5113289;28;20024;-79
2021/04/08 16:28:18;;;;;;;3.40;2.22;;;;;;;;;;5101613;28;20036;-79
2021/04/08 16:30:44;;;;;;;3.80;2.22;;;;;;;;;;5110490;28;20039;-79
2021/04/08 16:33:11;;;;;;;3.63;2.20;;;;;;;;;;5116353;28;20020;-79
2021/04/08 16:35:37;;;;;;;6.22;2.30;;;;;;;;;;5114199;28;20032;-77
2021/04/08 16:38:03;;;;;;;6.72;2.13;;;;;;;;;;5111690;28;20396;-76
2021/04/08 16:40:29;;;;;;;5.75;2.53;;;;;;;;;;5111027;28;20028;-76
2021/04/08 16:42:55;;;;;;;6.90;2.25;;;;;;;;;;5107686;28;20031;-76
2021/04/08 16:45:21;;;;;;;8.38;2.60;;;;;;;;;;5111391;28;20023;-76
2021/04/08 16:47:47;;;;;;;6.10;2.28;;;;;;;;;;5110454;28;20031;-76
2021/04/08 16:50:14;;;;;;;7.75;2.30;;;;;;;;;;5111332;28;20125;-76
2021/04/08 16:52:40;;;;;;;6.85;2.58;;;;;;;;;;5111472;28;20028;-76
2021/04/08 16:55:07;;;;;;;4.82;2.35;;;;;;;;;;5109070;28;20035;-77
2021/04/08 16:57:34;;;;;;;3.95;2.20;;;;;;;;;;5102898;28;20048;-76
2021/04/08 17:00:00;;;;;;;6.03;2.78;;;;;;;;;;5112038;28;20484;-76
2021/04/08 17:02:26;;;;;;;5.57;2.28;;;;;;;;;;5105991;28;20055;-76
2021/04/08 17:04:52;;;;;;;4.55;2.28;;;;;;;;;;5111466;28;20051;-76
2021/04/08 17:07:18;;;;;;;6.63;2.35;;;;;;;;;;5112110;28;20427;-77
2021/04/08 17:09:44;;;;;;;9.40;2.33;;;;;;;;;;5111180;28;20110;-73
2021/04/08 17:12:10;;;;;;;5.03;2.25;;;;;;;;;;5112236;28;20028;-73
2021/04/08 17:14:36;;;;;;;6.47;2.55;;;;;;;;;;5110402;28;20073;-73
2021/04/08 17:17:02;;;;;;;5.13;2.83;;;;;;;;;;5111287;28;20042;-73
2021/04/08 17:19:28;;;;;;;5.85;2.60;;;;;;;;;;5109750;28;20099;-76
2021/04/08 17:21:54;;;;;;;6.07;2.80;;;;;;;;;;5112628;28;20030;-77
2021/04/08 17:24:20;;;;;;;5.28;1.98;;;;;;;;;;5105067;28;20023;-75
2021/04/08 17:26:46;;;;;;;6.97;2.22;;;;;;;;;;5103844;28;20048;-77
2021/04/08 17:29:12;;;;;;;5.22;2.45;;;;;;;;;;5105710;28;20052;-75
2021/04/08 17:31:38;;;;;;;5.15;2.08;;;;;;;;;;5102658;28;20441;-76
2021/04/08 17:34:04;;;;;;;6.53;2.60;;;;;;;;;;5107492;28;20083;-75
2021/04/08 17:36:30;;;;;;;7.97;2.40;;;;;;;;;;5109332;28;20055;-78
2021/04/08 17:38:57;;;;;;;5.93;2.50;;;;;;;;;;5106094;28;20024;-76
2021/04/08 17:41:23;;;;;;;5.57;2.20;;;;;;;;;;5109835;28;20030;-80
2021/04/08 17:43:49;;;;;;;5.28;2.20;;;;;;;;;;5112729;28;20020;-78
2021/04/08 17:46:15;;;;;;;5.15;2.05;;;;;;;;;;5117541;28;20076;-78
2021/04/08 17:48:41;;;;;;;5.45;1.80;;;;;;;;;;5116003;28;20028;-78
2021/04/08 17:51:07;;;;;;;8.07;2.20;;;;;;;;;;5115463;28;20480;-78
2021/04/08 17:53:33;;;;;;;6.00;2.15;;;;;;;;;;5115507;28;20050;-79
2021/04/08 17:56:00;;;;;;;7.65;2.10;;;;;;;;;;5116265;28;20031;-79
2021/04/08 17:58:26;;;;;;;6.80;2.40;;;;;;;;;;5116108;28;20519;-78
2021/04/08 18:00:52;;;;;;;4.93;2.80;;;;;;;;;;5116606;28;20511;-78
2021/04/08 18:03:18;;;;;;;5.15;2.35;;;;;;;;;;5116232;28;20031;-79
2021/04/08 18:05:44;;;;;;;9.20;2.60;;;;;;;;;;5089257;28;20054;-79
2021/04/08 18:08:10;;;;;;;5.30;2.45;;;;;;;;;;5117009;28;20081;-78
2021/04/08 18:10:36;;;;;;;5.70;2.15;;;;;;;;;;5097173;28;20024;-76
2021/04/08 18:13:02;;;;;;;7.47;2.97;;;;;;;;;;5117002;28;20036;-78
2021/04/08 18:15:28;;;;;;;5.10;3.45;;;;;;;;;;5117988;28;20132;-78
2021/04/08 18:17:54;;;;;;;7.40;3.38;;;;;;;;;;5117525;28;20023;-77
2021/04/08 18:20:21;;;;;;;7.78;2.97;;;;;;;;;;5114173;28;20076;-77
2021/04/08 18:22:47;;;;;;;7.90;3.35;;;;;;;;;;5111802;28;20026;-79
2021/04/08 18:25:14;;;;;;;6.50;3.65;;;;;;;;;;5097827;28;20396;-79
2021/04/08 18:27:40;;;;;;;9.88;4.82;;;;;;;;;;5115993;28;20020;-78
2021/04/08 18:30:09;;;;;;;7.00;4.50;;;;;;;;;;5110517;28;20067;-77
2021/04/08 18:32:36;;;;;;;7.68;4.20;;;;;;;;;;5116532;28;20019;-78
2021/04/08 18:35:02;;;;;;;10.10;4.78;;;;;;;;;;5116376;28;20028;-78
2021/04/08 18:37:28;;;;;;;14.30;5.75;;;;;;;;;;5115153;28;20590;-78
2021/04/08 18:39:55;;;;;;;12.02;7.32;;;;;;;;;;5116371;28;20381;-78
2021/04/08 18:42:21;;;;;;;15.90;7.55;;;;;;;;;;5115360;28;20024;-78
2021/04/08 18:44:47;;;;;;;12.98;7.30;;;;;;;;;;5115401;28;20035;-78
2021/04/08 18:47:13;;;;;;;14.20;6.68;;;;;;;;;;5116548;28;20372;-78
2021/04/08 18:49:39;;;;;;;14.38;7.07;;;;;;;;;;5112489;28;20119;-77
2021/04/08 18:52:07;;;;;;;10.77;5.82;;;;;;;;;;5094082;28;20058;-77
2021/04/08 18:54:33;;;;;;;11.60;5.13;;;;;;;;;;5116210;28;20068;-78
